Time;durP1;ratioP1;P1;durP2;ratioP2;P2;SDS_P1;SDS_P2;PMS_P1;PMS_P2;Temp;Humidity;BMP_temperature;BMP_pressure;BME280_temperature;BME280_humidity;BME280_pressure;Samples;Min_cycle;Max_cycle;Signal;HPM_P1;HPM_P2
2023/09/30 07:23:06;;;;;;;13.38;9.93;;;;;;;-145.79;100.00;78466.91;5322688;27;20339;-71
2023/09/30 07:25:37;;;;;;;14.98;11.05;;;;;;;-145.79;100.00;78462.66;5314751;28;20124;-71
2023/09/30 07:28:11;;;;;;;15.52;10.98;;;;;;;-145.79;100.00;78471.16;5317372;28;20051;-71
2023/09/30 07:30:44;;;;;;;16.90;11.40;;;;;;;-145.79;100.00;78441.47;5305238;28;20032;-75
2023/09/30 07:33:15;;;;;;;18.33;11.30;;;;;;;-145.79;100.00;78466.91;5321039;28;20020;-81
2023/09/30 07:35:49;;;;;;;13.15;9.00;;;;;;;-145.79;100.00;78445.72;5317425;28;20036;-77
2023/09/30 07:38:22;;;;;;;14.52;10.85;;;;;;;-145.79;100.00;78445.72;5310874;28;20107;-79
2023/09/30 07:40:53;;;;;;;13.73;9.52;;;;;;;-145.79;100.00;78441.47;5313537;28;20030;-75
2023/09/30 07:43:25;;;;;;;9.55;8.18;;;;;;;-145.79;100.00;78401.19;5310693;28;20024;-76
2023/09/30 07:45:56;;;;;;;12.40;9.05;;;;;;;-145.79;100.00;78407.53;5307637;28;20032;-77
2023/09/30 07:48:30;;;;;;;14.27;9.30;;;;;;;-145.79;100.00;78394.81;5303666;28;20131;-76
2023/09/30 07:51:02;;;;;;;14.25;9.75;;;;;;;-145.79;100.00;78399.06;5314283;28;20053;-77
2023/09/30 07:53:33;;;;;;;12.70;10.18;;;;;;;-145.79;100.00;78382.09;5307129;28;20024;-77
2023/09/30 07:56:04;;;;;;;14.02;8.43;;;;;;;-145.79;100.00;78341.81;5298883;28;20035;-77
2023/09/30 07:58:39;;;;;;;11.30;9.10;;;;;;;-145.79;100.00;78363.03;5307186;28;20458;-80
2023/09/30 08:01:11;;;;;;;11.68;8.23;;;;;;;-145.79;100.00;78320.63;5304066;28;20038;-76
2023/09/30 08:03:42;;;;;;;13.15;9.05;;;;;;;-145.79;100.00;78352.44;5320026;28;20482;-78
2023/09/30 08:06:14;;;;;;;14.93;9.23;;;;;;;-145.79;100.00;78343.94;5299679;28;20028;-75
2023/09/30 08:08:45;;;;;;;16.00;10.65;;;;;;;-145.79;99.96;78339.69;5301557;28;20025;-78
2023/09/30 08:11:18;;;;;;;17.23;8.43;;;;;;;-145.79;100.00;78310.03;5306581;28;20054;-78
2023/09/30 08:13:52;;;;;;;15.57;9.35;;;;;;;-145.79;100.00;78318.50;5303194;28;20028;-78
2023/09/30 08:16:23;;;;;;;11.55;8.15;;;;;;;-145.79;100.00;78297.31;5307092;28;20015;-77
2023/09/30 08:18:55;;;;;;;11.95;9.20;;;;;;;-145.79;99.54;78301.53;5310570;28;20027;-74
2023/09/30 08:21:26;;;;;;;13.05;9.40;;;;;;;-145.79;99.42;78295.19;5320637;28;20065;-79
2023/09/30 08:23:58;;;;;;;12.63;8.57;;;;;;;-145.79;99.21;78297.31;5323735;28;20104;-79
2023/09/30 08:26:29;;;;;;;14.60;9.48;;;;;;;-145.79;99.99;78269.75;5330405;28;20697;-77
2023/09/30 08:29:01;;;;;;;17.88;10.20;;;;;;;-145.79;99.33;78280.34;5329951;28;20032;-79
2023/09/30 08:31:32;;;;;;;11.55;8.65;;;;;;;-145.79;98.82;78276.09;5330440;28;20474;-77
2023/09/30 08:34:04;;;;;;;14.48;8.63;;;;;;;-145.79;98.99;78265.50;5322716;28;20020;-77
2023/09/30 08:36:35;;;;;;;19.33;11.18;;;;;;;-145.79;98.95;78267.63;5317942;28;20114;-80
2023/09/30 08:39:12;;;;;;;19.35;12.48;;;;;;;-145.79;98.88;78265.50;5314548;28;20023;-77
2023/09/30 08:41:45;;;;;;;12.40;8.40;;;;;;;-145.79;99.57;78233.69;5314709;28;20024;-77
2023/09/30 08:44:16;;;;;;;15.38;9.30;;;;;;;-145.79;99.03;78225.22;5313871;28;20027;-75
2023/09/30 08:46:50;;;;;;;20.10;10.02;;;;;;;-145.79;97.79;78246.41;5320826;28;20493;-79
2023/09/30 08:49:22;;;;;;;17.88;9.23;;;;;;;-145.79;97.72;78235.81;5320148;28;20032;-80
2023/09/30 08:51:57;;;;;;;14.50;8.73;;;;;;;-145.79;97.62;78231.56;5319000;28;20058;-78
2023/09/30 08:54:28;;;;;;;14.95;9.40;;;;;;;-145.79;97.85;78216.72;5321792;28;20082;-77
2023/09/30 08:57:04;;;;;;;12.82;8.23;;;;;;;-145.79;97.26;78225.22;5313693;28;20056;-79
2023/09/30 08:59:41;;;;;;;12.05;9.38;;;;;;;-145.79;96.82;78206.13;5315420;28;20028;-78
2023/09/30 09:02:12;;;;;;;19.10;14.63;;;;;;;-145.79;95.48;78210.38;5307111;28;20030;-76
2023/09/30 09:04:49;;;;;;;15.32;8.00;;;;;;;-145.79;94.37;78210.38;5307702;28;20024;-78
2023/09/30 09:07:23;;;;;;;13.00;7.82;;;;;;;-145.79;95.17;78199.78;5307685;28;20020;-76
2023/09/30 09:10:07;;;;;;;16.38;9.32;;;;;;;-145.79;95.19;78206.13;5302723;28;20036;-76
2023/09/30 09:12:42;;;;;;;12.70;9.10;;;;;;;-145.79;95.85;78197.66;5310079;28;20031;-77
2023/09/30 09:15:23;;;;;;;15.68;8.73;;;;;;;-145.79;94.21;78208.25;5312505;28;20479;-75
2023/09/30 09:17:55;;;;;;;10.40;7.47;;;;;;;-145.79;93.31;78208.25;5316616;28;20034;-77
2023/09/30 09:20:26;;;;;;;18.20;12.30;;;;;;;-145.79;92.87;78197.66;5313757;28;20474;-75
2023/09/30 09:23:00;;;;;;;14.20;7.78;;;;;;;-145.79;92.21;78184.94;5312942;28;20065;-78
2023/09/30 09:25:38;;;;;;;13.68;9.32;;;;;;;-145.79;91.95;78195.53;5304908;28;20028;-75
2023/09/30 09:28:10;;;;;;;13.35;8.18;;;;;;;-145.79;91.50;78193.41;5306156;28;20028;-77
2023/09/30 09:30:43;;;;;;;13.38;8.35;;;;;;;-145.79;91.34;78184.94;5306828;28;20019;-78
2023/09/30 09:33:14;;;;;;;13.18;8.35;;;;;;;-145.79;90.78;78184.94;5326294;28;20019;-76
2023/09/30 09:35:48;;;;;;;14.20;7.45;;;;;;;-145.79;90.76;78178.56;5316086;28;20034;-77
2023/09/30 09:38:19;;;;;;;14.05;7.88;;;;;;;-145.79;89.35;78174.34;5322640;28;20084;-74
2023/09/30 09:40:59;;;;;;;11.68;8.13;;;;;;;-145.79;88.55;78161.63;5320957;28;20146;-74
2023/09/30 09:43:33;;;;;;;11.07;8.07;;;;;;;-145.79;88.55;78155.25;5324241;28;20027;-74
2023/09/30 09:46:08;;;;;;;8.40;6.80;;;;;;;-145.79;88.37;78159.50;5309598;28;20024;-75
2023/09/30 09:48:40;;;;;;;12.48;9.27;;;;;;;-145.79;86.24;78163.72;5297578;28;20070;-75
2023/09/30 09:51:12;;;;;;;11.73;7.95;;;;;;;-145.79;85.98;78159.50;5316812;28;20043;-75
2023/09/30 09:53:44;;;;;;;14.65;9.82;;;;;;;-145.79;86.41;78140.41;5317694;28;20747;-71
2023/09/30 09:56:17;;;;;;;11.00;7.93;;;;;;;-145.79;86.42;78134.06;5313442;28;20057;-75
2023/09/30 09:58:49;;;;;;;14.43;7.75;;;;;;;-145.79;85.32;78136.19;5309060;28;20482;-75
2023/09/30 10:01:21;;;;;;;10.43;7.45;;;;;;;-145.79;84.44;78131.94;5319177;28;20034;-75
2023/09/30 10:03:53;;;;;;;11.05;8.10;;;;;;;-145.79;85.16;78131.94;5324167;28;20027;-76
2023/09/30 10:06:25;;;;;;;11.32;7.47;;;;;;;-145.79;85.93;78110.72;5319405;28;20467;-75
2023/09/30 10:08:58;;;;;;;11.30;7.10;;;;;;;-145.79;86.20;78110.72;5317605;28;20031;-75
2023/09/30 10:11:32;;;;;;;12.57;7.28;;;;;;;-145.79;85.18;78110.72;5311374;28;20020;-75
2023/09/30 10:14:04;;;;;;;12.45;8.18;;;;;;;-145.79;84.92;78098.00;5320850;28;20390;-75
2023/09/30 10:16:38;;;;;;;12.10;8.50;;;;;;;-145.79;84.49;78095.91;5312028;28;20026;-73
2023/09/30 10:19:14;;;;;;;9.65;7.50;;;;;;;-145.79;84.08;78085.28;5325137;28;20087;-74
2023/09/30 10:22:24;;;;;;;11.13;7.32;;;;;;;-145.79;83.27;78089.53;5314576;28;20044;-75
2023/09/30 10:24:57;;;;;;;11.65;7.53;;;;;;;-145.79;82.69;78076.81;5312052;28;20486;-72
2023/09/30 10:27:37;;;;;;;11.50;6.75;;;;;;;-145.79;82.23;78061.97;5316555;28;20027;-74
2023/09/30 10:30:16;;;;;;;7.88;5.80;;;;;;;-145.79;80.43;78059.84;5290581;28;20062;-73
2023/09/30 10:32:50;;;;;;;8.40;7.47;;;;;;;-145.79;79.37;78049.25;5317277;28;20031;-74
2023/09/30 10:35:27;;;;;;;8.20;5.70;;;;;;;-145.79;79.00;78047.13;5326177;28;20031;-74
2023/09/30 10:38:24;;;;;;;8.65;6.13;;;;;;;-145.79;79.00;78042.91;5320079;28;20407;-75
2023/09/30 10:40:56;;;;;;;10.20;5.97;;;;;;;-145.79;78.33;78047.13;5319220;28;20063;-74
2023/09/30 10:43:37;;;;;;;9.30;7.32;;;;;;;-145.79;79.03;78038.66;5314659;28;20047;-74
2023/09/30 10:46:27;;;;;;;10.82;6.57;;;;;;;-145.79;79.83;78034.41;5317089;28;20066;-74
2023/09/30 10:49:17;;;;;;;10.73;6.80;;;;;;;-145.79;79.24;78025.94;5319774;28;20077;-74
2023/09/30 10:52:02;;;;;;;11.27;6.13;;;;;;;-145.79;78.80;78008.97;5304026;28;20428;-73
2023/09/30 10:54:36;;;;;;;10.13;6.80;;;;;;;-145.79;77.12;78006.84;5312618;28;20031;-75
2023/09/30 10:57:10;;;;;;;7.00;5.25;;;;;;;-145.79;77.68;77994.13;5317018;28;20637;-75
2023/09/30 10:59:41;;;;;;;12.63;8.07;;;;;;;-145.79;77.42;77983.53;5313717;28;20024;-76
2023/09/30 11:02:20;;;;;;;9.38;6.45;;;;;;;-145.79;78.30;77962.34;5312021;28;20092;-74
2023/09/30 11:04:51;;;;;;;12.68;6.88;;;;;;;-145.79;78.50;77953.84;5314464;28;20032;-73
2023/09/30 11:07:25;;;;;;;12.82;5.68;;;;;;;-145.79;75.97;77958.09;5317142;28;20038;-75
2023/09/30 11:10:01;;;;;;;8.57;5.28;;;;;;;-145.79;73.69;77953.84;5314972;28;20477;-75
2023/09/30 11:12:34;;;;;;;11.02;4.93;;;;;;;-145.79;73.74;77943.25;5324205;28;20032;-76
2023/09/30 11:15:09;;;;;;;6.35;5.00;;;;;;;-145.79;73.55;77932.66;5317601;28;20035;-76
2023/09/30 11:17:40;;;;;;;8.98;5.45;;;;;;;-145.79;73.32;77930.53;5318796;28;20035;-74
2023/09/30 11:20:12;;;;;;;7.25;5.05;;;;;;;-145.79;73.51;77915.69;5316011;28;20028;-74
2023/09/30 11:22:44;;;;;;;7.57;5.20;;;;;;;-145.79;72.89;77919.94;5317212;28;20036;-73
2023/09/30 11:25:19;;;;;;;8.68;5.28;;;;;;;-145.79;73.92;77915.69;5306949;28;20091;-74
2023/09/30 11:27:50;;;;;;;8.43;4.90;;;;;;;-145.79;73.21;77915.69;5316951;28;20089;-75
2023/09/30 11:30:22;;;;;;;10.50;5.05;;;;;;;-145.79;73.58;77919.94;5319251;28;20447;-74
2023/09/30 11:33:00;;;;;;;10.95;4.95;;;;;;;-145.79;72.15;77919.94;5303651;28;20039;-76
2023/09/30 11:35:31;;;;;;;8.30;4.82;;;;;;;-145.79;71.52;77902.97;5327539;28;20028;-79
2023/09/30 11:38:06;;;;;;;13.32;11.70;;;;;;;-145.79;71.20;77890.25;5318287;28;20034;-77
2023/09/30 11:40:37;;;;;;;8.75;4.35;;;;;;;-145.79;70.18;77894.50;5313096;28;20102;-76
2023/09/30 11:43:11;;;;;;;8.15;4.15;;;;;;;-145.79;70.26;77888.13;5329180;28;20450;-76
2023/09/30 11:45:43;;;;;;;5.50;3.50;;;;;;;-145.79;69.98;77881.78;5313489;28;20027;-74
2023/09/30 11:48:20;;;;;;;8.98;4.50;;;;;;;-145.79;70.46;77894.50;5305567;28;20094;-77
2023/09/30 11:50:52;;;;;;;7.68;4.93;;;;;;;-145.79;71.10;77879.66;5326960;28;20024;-76
2023/09/30 11:53:24;;;;;;;9.23;5.05;;;;;;;-145.79;70.67;77873.31;5321226;28;20430;-75
2023/09/30 11:55:58;;;;;;;9.45;5.30;;;;;;;-145.79;70.92;77858.47;5320943;28;20048;-76
2023/09/30 11:58:42;;;;;;;8.63;5.18;;;;;;;-145.79;66.39;77858.47;5324455;28;20084;-75
2023/09/30 12:01:13;;;;;;;7.85;4.80;;;;;;;-145.79;66.85;77839.38;5324415;28;20115;-75
2023/09/30 12:03:47;;;;;;;7.68;4.25;;;;;;;-145.79;65.81;77809.69;5318581;28;20097;-70
2023/09/30 12:06:18;;;;;;;7.57;4.72;;;;;;;-145.79;64.59;77818.19;5312818;28;20027;-72
2023/09/30 12:08:54;;;;;;;6.45;3.40;;;;;;;-145.79;62.84;77801.22;5308464;28;20412;-75
2023/09/30 12:11:25;;;;;;;5.88;3.10;;;;;;;-145.79;62.78;77805.47;5316115;28;20027;-76
2023/09/30 12:13:57;;;;;;;6.75;4.80;;;;;;;-145.79;63.73;77805.47;5318824;28;20016;-78
2023/09/30 12:16:28;;;;;;;8.77;5.20;;;;;;;-145.79;65.47;77794.88;5318110;28;20115;-78
2023/09/30 12:19:06;;;;;;;6.82;5.30;;;;;;;-145.79;64.05;77807.59;5316696;28;20019;-76
2023/09/30 12:21:37;;;;;;;7.65;3.90;;;;;;;-145.79;63.80;77782.16;5319559;28;20448;-78
2023/09/30 12:24:09;;;;;;;7.03;4.53;;;;;;;-145.79;62.54;77775.78;5314634;28;20046;-78
2023/09/30 12:26:41;;;;;;;5.78;3.58;;;;;;;-145.79;61.45;77775.78;5316037;28;20054;-76
2023/09/30 12:29:12;;;;;;;9.77;3.88;;;;;;;-145.79;61.65;77771.53;5311408;28;20502;-80
2023/09/30 12:31:51;;;;;;;10.20;7.63;;;;;;;-145.79;61.70;77756.72;5315007;28;20012;-75
2023/09/30 12:34:25;;;;;;;12.00;10.05;;;;;;;-145.79;62.43;77746.09;5321012;28;20042;-74
2023/09/30 12:36:56;;;;;;;7.50;4.93;;;;;;;-145.79;61.91;77733.38;5316668;28;20050;-77
2023/09/30 12:39:30;;;;;;;8.10;3.58;;;;;;;-145.79;60.20;77733.38;5316248;28;20059;-75
2023/09/30 12:42:01;;;;;;;7.53;3.75;;;;;;;-145.79;58.09;77733.38;5317540;28;20028;-74
2023/09/30 12:44:33;;;;;;;9.32;4.03;;;;;;;-145.79;58.47;77733.38;5318167;28;20024;-73
2023/09/30 12:47:05;;;;;;;6.10;3.30;;;;;;;-145.79;58.79;77718.56;5319876;28;20390;-71
2023/09/30 12:49:37;;;;;;;6.63;3.42;;;;;;;-145.79;58.31;77712.19;5299837;28;20024;-70
2023/09/30 12:52:10;;;;;;;7.55;5.43;;;;;;;-145.79;58.70;77720.66;5319579;28;20469;-71
2023/09/30 12:54:41;;;;;;;7.00;3.70;;;;;;;-145.79;57.99;77716.44;5316369;28;20024;-70
2023/09/30 12:57:17;;;;;;;9.13;4.10;;;;;;;-145.79;59.98;77707.94;5310728;28;20028;-72
2023/09/30 12:59:49;;;;;;;7.53;6.40;;;;;;;-145.79;59.56;77703.72;5316566;28;20023;-73
2023/09/30 13:02:20;;;;;;;6.07;4.78;;;;;;;-145.79;59.79;77707.94;5305068;28;20070;-72
2023/09/30 13:04:54;;;;;;;7.70;3.22;;;;;;;-145.79;58.62;77703.72;5306152;28;20040;-72
2023/09/30 13:07:25;;;;;;;5.90;3.70;;;;;;;-145.79;59.22;77710.06;5308356;28;20138;-72
2023/09/30 13:09:57;;;;;;;12.00;4.45;;;;;;;-145.79;59.54;77712.19;5320704;28;20498;-72
2023/09/30 13:12:29;;;;;;;7.63;3.85;;;;;;;-145.79;58.91;77712.19;5325204;28;20054;-73
2023/09/30 13:15:01;;;;;;;4.93;3.20;;;;;;;-145.79;57.85;77714.31;5306042;28;20042;-74
2023/09/30 13:17:32;;;;;;;7.55;3.85;;;;;;;-145.79;58.43;77712.19;5316317;28;20031;-73
2023/09/30 13:20:05;;;;;;;6.07;3.25;;;;;;;-145.79;59.27;77714.31;5312470;28;20030;-74
2023/09/30 13:22:37;;;;;;;7.93;5.00;;;;;;;-145.79;58.31;77724.91;5312626;28;20043;-72
2023/09/30 13:25:12;;;;;;;5.80;3.72;;;;;;;-145.79;58.92;77727.03;5310924;28;20110;-71
2023/09/30 13:27:46;;;;;;;6.05;3.25;;;;;;;-145.79;59.13;77727.03;5314567;28;20041;-73
2023/09/30 13:30:17;;;;;;;5.23;4.13;;;;;;;-145.79;59.22;77729.16;5314353;28;20020;-71
2023/09/30 13:32:52;;;;;;;6.38;3.35;;;;;;;-145.79;58.97;77724.91;5313203;28;20066;-72
2023/09/30 13:35:23;;;;;;;4.55;2.97;;;;;;;-145.79;58.93;77731.28;5314015;28;20030;-70
2023/09/30 13:37:54;;;;;;;7.80;3.78;;;;;;;-145.79;59.16;77731.28;5312501;28;20032;-72
2023/09/30 13:40:25;;;;;;;5.57;3.22;;;;;;;-145.79;58.10;77731.28;5313720;28;20106;-72
2023/09/30 13:42:58;;;;;;;6.13;3.63;;;;;;;-145.79;58.56;77735.50;5313008;28;20161;-73
2023/09/30 13:45:30;;;;;;;6.63;3.33;;;;;;;-145.79;58.64;77724.91;5312196;28;20411;-76
2023/09/30 13:48:01;;;;;;;7.85;3.47;;;;;;;-145.79;59.41;77722.78;5314139;28;20031;-69
2023/09/30 13:50:33;;;;;;;7.25;4.38;;;;;;;-145.79;59.92;77714.31;5309096;28;20069;-77
2023/09/30 13:53:09;;;;;;;6.25;4.60;;;;;;;-145.79;60.17;77710.06;5315092;28;20040;-73
2023/09/30 13:55:40;;;;;;;6.18;4.43;;;;;;;-145.79;60.22;77714.31;5314728;28;20122;-73
2023/09/30 13:58:11;;;;;;;6.32;3.58;;;;;;;-145.79;60.81;77703.72;5313219;28;20145;-73
2023/09/30 14:00:48;;;;;;;6.45;4.68;;;;;;;-145.79;60.48;77707.94;5312564;28;20020;-72
2023/09/30 14:03:19;;;;;;;6.57;4.13;;;;;;;-145.79;59.89;77699.47;5310638;28;20470;-74
2023/09/30 14:05:53;;;;;;;7.55;4.15;;;;;;;-145.79;58.42;77693.13;5314227;28;20081;-74
2023/09/30 14:08:25;;;;;;;8.68;3.40;;;;;;;-145.79;58.61;77693.13;5314664;28;20024;-75
2023/09/30 14:10:56;;;;;;;7.88;4.07;;;;;;;-145.79;57.69;77691.00;5309457;28;20047;-75
2023/09/30 14:13:27;;;;;;;7.93;6.85;;;;;;;-145.79;57.28;77695.22;5313189;28;20019;-74
2023/09/30 14:15:59;;;;;;;5.45;3.72;;;;;;;-145.79;56.74;77676.16;5312226;28;20028;-75
2023/09/30 14:18:33;;;;;;;8.90;3.85;;;;;;;-145.79;56.78;77682.50;5313867;28;20366;-72
2023/09/30 14:21:06;;;;;;;7.85;5.10;;;;;;;-145.79;57.17;77682.50;5315188;28;20059;-79
2023/09/30 14:23:37;;;;;;;8.05;4.30;;;;;;;-145.79;56.57;77678.28;5309263;28;20104;-78
2023/09/30 14:26:10;;;;;;;8.35;3.75;;;;;;;-145.79;56.36;77682.50;5314599;28;20378;-76
2023/09/30 14:28:48;;;;;;;7.10;4.25;;;;;;;-145.79;56.10;77682.50;5312890;28;20019;-75
2023/09/30 14:31:19;;;;;;;10.68;4.15;;;;;;;-145.79;56.43;77671.91;5310601;28;20036;-71
2023/09/30 14:33:53;;;;;;;7.18;3.85;;;;;;;-145.79;55.55;77665.56;5312997;28;20497;-74
2023/09/30 14:36:25;;;;;;;5.07;2.73;;;;;;;-145.79;54.06;77665.56;5314921;28;20032;-76
2023/09/30 14:39:00;;;;;;;6.70;3.30;;;;;;;-145.79;53.98;77669.78;5313333;28;20028;-71
2023/09/30 14:41:32;;;;;;;5.75;2.97;;;;;;;-145.79;54.21;77682.50;5315341;28;20053;-73
2023/09/30 14:44:07;;;;;;;6.25;3.90;;;;;;;-145.79;54.41;77682.50;5315770;28;20015;-73
2023/09/30 14:46:39;;;;;;;6.75;3.10;;;;;;;-145.79;54.98;77676.16;5314723;28;20028;-75
2023/09/30 14:49:13;;;;;;;14.07;12.65;;;;;;;-145.79;55.23;77686.75;5313081;28;20020;-75
2023/09/30 14:51:48;;;;;;;5.95;3.85;;;;;;;-145.79;55.39;77686.75;5311469;28;20028;-74
2023/09/30 14:54:19;;;;;;;5.60;2.97;;;;;;;-145.79;55.41;77674.03;5313014;28;20106;-75
2023/09/30 14:56:51;;;;;;;6.20;3.78;;;;;;;-145.79;56.84;77663.44;5309604;28;20102;-73
2023/09/30 14:59:25;;;;;;;5.75;3.53;;;;;;;-145.79;57.42;77663.44;5315755;28;20049;-71
2023/09/30 15:01:56;;;;;;;7.45;3.60;;;;;;;-145.79;58.24;77652.84;5312953;28;20379;-74
2023/09/30 15:04:28;;;;;;;8.02;3.67;;;;;;;-145.79;58.45;77650.72;5316011;28;20024;-74
2023/09/30 15:07:00;;;;;;;6.78;3.83;;;;;;;-145.79;58.04;77661.31;5311786;28;20482;-73
2023/09/30 15:09:32;;;;;;;5.95;3.92;;;;;;;-145.79;58.21;77674.03;5316001;28;20336;-73
2023/09/30 15:12:03;;;;;;;10.60;6.68;;;;;;;-145.79;58.32;77669.78;5310939;28;20115;-72
2023/09/30 15:14:34;;;;;;;6.72;4.32;;;;;;;-145.79;58.05;77669.78;5311668;28;20446;-72
2023/09/30 15:17:07;;;;;;;6.95;3.72;;;;;;;-145.79;58.75;77671.91;5312783;28;20088;-72
2023/09/30 15:19:39;;;;;;;7.00;4.75;;;;;;;-145.79;58.93;77680.38;5313335;28;20085;-73
2023/09/30 15:22:10;;;;;;;8.20;4.00;;;;;;;-145.79;58.10;77693.13;5310219;28;20044;-74
2023/09/30 15:24:42;;;;;;;6.68;3.45;;;;;;;-145.79;58.34;77701.59;5312383;28;20475;-73
2023/09/30 15:27:13;;;;;;;7.90;4.38;;;;;;;-145.79;58.19;77703.72;5313026;28;20027;-74
2023/09/30 15:29:45;;;;;;;5.82;3.75;;;;;;;-145.79;58.57;77695.22;5312623;28;20079;-75
2023/09/30 15:32:16;;;;;;;7.35;5.07;;;;;;;-145.79;58.37;77678.28;5313404;28;20024;-75
2023/09/30 15:34:48;;;;;;;9.10;4.55;;;;;;;-145.79;58.62;77686.75;5311027;28;20379;-74
2023/09/30 15:37:22;;;;;;;7.72;6.05;;;;;;;-145.79;58.61;77684.63;5312110;28;20031;-74
2023/09/30 15:39:53;;;;;;;8.18;5.20;;;;;;;-145.79;58.44;77686.75;5312037;28;20115;-75
2023/09/30 15:42:24;;;;;;;7.28;4.93;;;;;;;-145.79;59.05;77684.63;5311831;28;20115;-75
2023/09/30 15:44:56;;;;;;;6.85;4.10;;;;;;;-145.79;59.69;77682.50;5314700;28;20497;-73
2023/09/30 15:47:27;;;;;;;6.65;4.53;;;;;;;-145.79;59.67;77691.00;5316281;28;20027;-73
2023/09/30 15:50:01;;;;;;;5.97;4.50;;;;;;;-145.79;60.07;77695.22;5315446;28;20024;-74
2023/09/30 15:52:32;;;;;;;5.93;4.65;;;;;;;-145.79;60.69;77695.22;5317593;28;20023;-74
2023/09/30 15:55:06;;;;;;;5.68;4.18;;;;;;;-145.79;60.64;77701.59;5317440;28;20072;-72
2023/09/30 15:57:42;;;;;;;7.07;4.63;;;;;;;-145.79;61.09;77701.59;5315930;28;20478;-74
2023/09/30 16:00:14;;;;;;;10.43;5.53;;;;;;;-145.79;61.34;77705.84;5317104;28;20019;-75
2023/09/30 16:02:45;;;;;;;7.13;5.10;;;;;;;-145.79;61.79;77712.19;5318381;28;20028;-74
2023/09/30 16:05:16;;;;;;;5.65;4.55;;;;;;;-145.79;62.43;77714.31;5309695;28;20085;-73
2023/09/30 16:07:47;;;;;;;10.15;5.38;;;;;;;-145.79;62.59;77712.19;5317763;28;20020;-74
2023/09/30 16:10:20;;;;;;;8.95;5.13;;;;;;;-145.79;63.17;77705.84;5315565;28;20122;-75
2023/09/30 16:12:51;;;;;;;7.53;5.18;;;;;;;-145.79;62.66;77722.78;5313140;28;20032;-76
2023/09/30 16:15:23;;;;;;;7.30;5.13;;;;;;;-145.79;63.33;77720.66;5318418;28;20024;-77
2023/09/30 16:17:54;;;;;;;7.00;5.50;;;;;;;-145.79;63.22;77724.91;5315413;28;20031;-76
2023/09/30 16:20:28;;;;;;;9.07;6.38;;;;;;;-145.79;63.40;77720.66;5313237;28;20050;-76
2023/09/30 16:22:59;;;;;;;5.28;4.65;;;;;;;-145.79;63.46;77733.38;5311171;28;20060;-76
2023/09/30 16:25:32;;;;;;;6.60;4.55;;;;;;;-145.79;63.92;77750.34;5311366;28;20085;-76
2023/09/30 16:28:07;;;;;;;5.30;4.80;;;;;;;-145.79;64.05;77748.22;5316556;28;20035;-77
2023/09/30 16:30:38;;;;;;;6.68;5.43;;;;;;;-145.79;63.98;77746.09;5314616;28;20020;-77
2023/09/30 16:33:10;;;;;;;12.95;10.18;;;;;;;-145.79;63.79;77752.47;5313996;28;20024;-75
2023/09/30 16:35:41;;;;;;;7.18;5.38;;;;;;;-145.79;64.55;77750.34;5312720;28;20421;-76
2023/09/30 16:38:12;;;;;;;7.95;5.97;;;;;;;-145.79;64.66;77763.06;5314166;28;20039;-75
2023/09/30 16:40:47;;;;;;;9.40;5.45;;;;;;;-145.79;65.03;77767.31;5313712;28;20024;-74
2023/09/30 16:43:19;;;;;;;8.55;5.63;;;;;;;-145.79;65.26;77754.59;5309613;28;20032;-74
2023/09/30 16:45:51;;;;;;;9.68;6.80;;;;;;;-145.79;65.39;77767.31;5312617;28;20081;-76
2023/09/30 16:48:22;;;;;;;8.75;6.28;;;;;;;-145.79;65.74;77777.91;5320869;28;20040;-75
2023/09/30 16:50:53;;;;;;;8.35;5.97;;;;;;;-145.79;66.00;77784.25;5325831;28;20011;-76
2023/09/30 16:53:25;;;;;;;6.68;5.50;;;;;;;-145.79;66.17;77794.88;5306553;28;20032;-76
